createdAt,value
2023-05-22T00:01:06.598Z,92506.47
2023-05-22T00:03:33.344Z,92506.47
2023-05-22T00:06:00.226Z,92504.91
2023-05-22T00:08:29.622Z,92504.06
2023-05-22T00:10:56.689Z,92497.56
2023-05-22T00:13:23.175Z,92491.28
2023-05-22T00:15:49.658Z,92492.34
2023-05-22T00:18:16.244Z,92488.72
2023-05-22T00:20:42.753Z,92493.28
2023-05-22T00:23:10.232Z,92491.69
2023-05-22T00:25:37.442Z,92488.03
2023-05-22T00:28:04.736Z,92494.59
2023-05-22T00:30:31.805Z,92492.69
2023-05-22T00:32:58.347Z,92495.03
2023-05-22T00:35:25.236Z,92492.91
2023-05-22T00:37:51.770Z,92496.31
2023-05-22T00:40:18.771Z,92499.13
2023-05-22T00:42:45.333Z,92492.81
2023-05-22T00:45:13.334Z,92491.09
2023-05-22T00:47:40.517Z,92493.75
2023-05-22T00:50:10.045Z,92490.09
2023-05-22T00:52:40.396Z,92500.16
2023-05-22T00:55:08.788Z,92505.69
2023-05-22T00:57:37.492Z,92500.22
2023-05-22T01:00:08.851Z,92508.91
2023-05-22T01:02:37.129Z,92515.72
2023-05-22T01:05:06.837Z,92517.78
2023-05-22T01:07:37.709Z,92524.97
2023-05-22T01:10:06.098Z,92526.28
2023-05-22T01:13:04.664Z,92533.63
2023-05-22T01:15:48.245Z,92525.72
2023-05-22T01:18:31.130Z,92524.81
2023-05-22T01:21:12.364Z,92524.06
2023-05-22T01:24:00.141Z,92522.72
2023-05-22T01:26:41.498Z,92521.78
2023-05-22T01:29:35.963Z,92524.34
2023-05-22T01:32:04.246Z,92528.84
2023-05-22T01:34:34.113Z,92524.34
2023-05-22T01:37:01.844Z,92515.94
2023-05-22T01:39:29.874Z,92514.56
2023-05-22T01:41:57.012Z,92517.72
2023-05-22T01:44:23.669Z,92520.06
2023-05-22T01:46:50.142Z,92522.44
2023-05-22T01:49:16.796Z,92519.00
2023-05-22T01:51:53.596Z,92523.22
2023-05-22T01:54:37.042Z,92524.00
2023-05-22T01:57:23.000Z,92527.72
2023-05-22T01:59:56.221Z,92524.59
2023-05-22T02:02:25.998Z,92524.59
2023-05-22T02:04:58.832Z,92519.06
2023-05-22T02:07:25.958Z,92520.91
2023-05-22T02:09:55.644Z,92524.06
2023-05-22T02:12:23.992Z,92516.13
2023-05-22T02:14:51.242Z,92514.78
2023-05-22T02:17:18.212Z,92516.13
2023-05-22T02:19:45.225Z,92514.56
2023-05-22T02:22:14.946Z,92518.00
2023-05-22T02:24:46.760Z,92518.72
2023-05-22T02:27:14.807Z,92510.00
2023-05-22T02:29:41.302Z,92506.03
2023-05-22T02:32:08.146Z,92501.28
2023-05-22T02:34:35.052Z,92497.63
2023-05-22T02:37:04.536Z,92503.47
2023-05-22T02:39:31.157Z,92499.75
2023-05-22T02:41:57.618Z,92498.19
2023-05-22T02:44:24.203Z,92494.97
2023-05-22T02:46:50.820Z,92500.22
2023-05-22T02:49:18.209Z,92504.41
2023-05-22T02:51:47.597Z,92493.59
2023-05-22T02:54:15.579Z,92492.03
2023-05-22T02:56:45.518Z,92507.84
2023-05-22T02:59:12.009Z,92507.31
2023-05-22T03:01:41.373Z,92499.41
2023-05-22T03:04:09.250Z,92503.34
2023-05-22T03:06:37.117Z,92494.94
2023-05-22T03:09:04.312Z,92499.41
2023-05-22T03:11:31.830Z,92493.41
2023-05-22T03:13:58.394Z,92494.75
2023-05-22T03:16:25.019Z,92498.47
2023-05-22T03:19:07.915Z,92498.25
2023-05-22T03:21:34.799Z,92497.97
2023-05-22T03:24:01.317Z,92496.63
2023-05-22T03:26:30.575Z,92505.88
2023-05-22T03:28:58.268Z,92505.09
2023-05-22T03:31:27.250Z,92503.03
2023-05-22T03:34:13.064Z,92505.16
2023-05-22T03:36:41.328Z,92509.66
2023-05-22T03:39:08.002Z,92500.38
2023-05-22T03:41:39.522Z,92507.44
2023-05-22T03:44:07.228Z,92510.31
2023-05-22T03:46:33.789Z,92513.16
2023-05-22T03:49:00.349Z,92506.03
2023-05-22T03:51:26.830Z,92501.81
2023-05-22T03:53:53.659Z,92503.47
2023-05-22T03:56:21.062Z,92494.53
2023-05-22T03:58:48.644Z,92501.44
2023-05-22T04:01:16.897Z,92502.53
2023-05-22T04:03:44.026Z,92496.75
2023-05-22T04:06:10.908Z,92505.47
2023-05-22T04:08:37.439Z,92507.81
2023-05-22T04:11:05.357Z,92512.81
2023-05-22T04:13:33.030Z,92515.44
2023-05-22T04:16:01.907Z,92513.06
2023-05-22T04:18:28.574Z,92513.91
2023-05-22T04:20:57.449Z,92512.34
2023-05-22T04:23:24.005Z,92510.22
2023-05-22T04:25:50.672Z,92519.44
2023-05-22T04:28:22.300Z,92518.66
2023-05-22T04:30:49.314Z,92532.53
2023-05-22T04:33:18.118Z,92527.75
2023-05-22T04:35:44.717Z,92524.06
2023-05-22T04:38:11.216Z,92526.69
2023-05-22T04:40:38.090Z,92526.91
2023-05-22T04:43:05.022Z,92531.63
2023-05-22T04:45:32.857Z,92528.44
2023-05-22T04:48:02.428Z,92530.03
2023-05-22T04:50:32.598Z,92525.03
2023-05-22T04:53:04.093Z,92538.78
2023-05-22T04:55:33.961Z,92537.69
2023-05-22T04:58:00.550Z,92533.75
2023-05-22T05:00:28.753Z,92548.81
2023-05-22T05:02:55.575Z,92546.69
2023-05-22T05:05:22.147Z,92546.19
2023-05-22T05:07:50.329Z,92551.41
2023-05-22T05:10:18.157Z,92542.97
2023-05-22T05:12:44.796Z,92542.97
2023-05-22T05:15:11.730Z,92545.88
2023-05-22T05:17:38.419Z,92545.69
2023-05-22T05:20:07.222Z,92541.75
2023-05-22T05:22:33.792Z,92545.47
2023-05-22T05:25:01.897Z,92544.56
2023-05-22T05:27:28.860Z,92544.00
2023-05-22T05:29:56.159Z,92543.44
2023-05-22T05:32:27.671Z,92543.88
2023-05-22T05:35:02.808Z,92543.56
2023-05-22T05:37:42.136Z,92545.50
2023-05-22T05:40:09.742Z,92541.28
2023-05-22T05:42:40.303Z,92544.41
2023-05-22T05:45:09.810Z,92549.69
2023-05-22T05:47:36.416Z,92540.03
2023-05-22T05:50:03.328Z,92539.66
2023-05-22T05:52:32.726Z,92550.91
2023-05-22T05:55:02.322Z,92536.16
2023-05-22T05:57:29.884Z,92541.25
2023-05-22T05:59:57.014Z,92546.44
2023-05-22T06:02:52.848Z,92543.44
2023-05-22T06:05:30.400Z,92550.72
2023-05-22T06:08:09.770Z,92549.84
2023-05-22T06:10:36.322Z,92555.13
2023-05-22T06:13:14.726Z,92555.28
2023-05-22T06:15:41.306Z,92552.28
2023-05-22T06:18:07.908Z,92554.03
2023-05-22T06:20:36.423Z,92562.88
2023-05-22T06:23:03.036Z,92555.69
2023-05-22T06:25:30.068Z,92558.22
2023-05-22T06:27:57.581Z,92564.00
2023-05-22T06:30:38.828Z,92551.78
2023-05-22T06:33:08.997Z,92562.56
2023-05-22T06:35:35.656Z,92559.84
2023-05-22T06:38:02.759Z,92562.19
2023-05-22T06:40:29.623Z,92562.59
2023-05-22T06:43:02.048Z,92562.91
2023-05-22T06:45:47.226Z,92562.81
2023-05-22T06:48:22.486Z,92559.81
2023-05-22T06:50:58.520Z,92561.50
2023-05-22T06:53:26.186Z,92560.84
2023-05-22T06:55:52.695Z,92568.09
2023-05-22T06:58:28.613Z,92563.66
2023-05-22T07:00:55.650Z,92564.09
2023-05-22T07:03:30.220Z,92566.63
2023-05-22T07:06:29.105Z,92566.22
2023-05-22T07:08:56.090Z,92571.41
2023-05-22T07:11:22.618Z,92571.34
2023-05-22T07:13:49.140Z,92579.38
2023-05-22T07:16:15.696Z,92581.31
2023-05-22T07:18:42.667Z,92578.53
2023-05-22T07:21:09.195Z,92578.16
2023-05-22T07:23:35.689Z,92583.03
2023-05-22T07:26:02.204Z,92584.81
2023-05-22T07:28:33.857Z,92574.56
2023-05-22T07:31:06.706Z,92584.78
2023-05-22T07:33:33.200Z,92583.59
2023-05-22T07:35:59.897Z,92580.84
2023-05-22T07:38:26.686Z,92578.06
2023-05-22T07:40:59.752Z,92578.75
2023-05-22T07:43:28.180Z,92582.22
2023-05-22T07:45:55.988Z,92575.41
2023-05-22T07:48:25.632Z,92584.81
2023-05-22T07:50:52.138Z,92575.34
2023-05-22T07:53:18.716Z,92568.72
2023-05-22T07:55:49.040Z,92568.47
2023-05-22T07:58:15.610Z,92564.00
2023-05-22T08:00:44.164Z,92571.81
2023-05-22T08:03:10.932Z,92569.81
2023-05-22T08:05:37.644Z,92574.84
2023-05-22T08:08:04.751Z,92575.09
2023-05-22T08:10:46.476Z,92566.69
2023-05-22T08:13:15.648Z,92569.69
2023-05-22T08:15:42.364Z,92573.50
2023-05-22T08:18:08.891Z,92567.91
2023-05-22T08:20:35.870Z,92569.16
2023-05-22T08:23:02.354Z,92566.69
2023-05-22T08:25:28.915Z,92574.97
2023-05-22T08:27:55.600Z,92570.91
2023-05-22T08:30:22.100Z,92569.22
2023-05-22T08:32:48.626Z,92568.91
2023-05-22T08:35:15.264Z,92569.38
2023-05-22T08:37:41.760Z,92576.25
2023-05-22T08:40:14.554Z,92571.69
2023-05-22T08:42:42.518Z,92572.47
2023-05-22T08:45:09.788Z,92571.66
2023-05-22T08:47:37.440Z,92570.53
2023-05-22T08:50:04.591Z,92562.53
2023-05-22T08:52:46.080Z,92559.84
2023-05-22T08:55:12.843Z,92568.75
2023-05-22T08:57:40.066Z,92564.34
2023-05-22T09:00:07.911Z,92555.53
2023-05-22T09:02:34.609Z,92557.03
2023-05-22T09:05:02.059Z,92558.91
2023-05-22T09:07:31.700Z,92567.16
2023-05-22T09:09:58.175Z,92564.59
2023-05-22T09:12:26.246Z,92561.72
2023-05-22T09:14:54.684Z,92561.53
2023-05-22T09:17:21.857Z,92563.63
2023-05-22T09:19:48.402Z,92556.19
2023-05-22T09:22:14.847Z,92549.34
2023-05-22T09:24:43.519Z,92552.81
2023-05-22T09:27:11.322Z,92553.88
2023-05-22T09:29:56.854Z,92555.03
2023-05-22T09:32:23.824Z,92549.28
2023-05-22T09:34:50.957Z,92553.31
2023-05-22T09:37:17.991Z,92548.41
2023-05-22T09:39:46.122Z,92552.41
2023-05-22T09:42:15.582Z,92548.44
2023-05-22T09:44:44.870Z,92547.38
2023-05-22T09:47:11.526Z,92555.41
2023-05-22T09:49:42.463Z,92562.22
2023-05-22T09:52:12.327Z,92561.44
2023-05-22T09:54:55.157Z,92563.66
2023-05-22T09:57:24.073Z,92560.34
2023-05-22T09:59:58.138Z,92561.91
2023-05-22T10:02:26.621Z,92552.75
2023-05-22T10:04:54.710Z,92566.34
2023-05-22T10:07:30.067Z,92568.47
2023-05-22T10:10:02.172Z,92564.09
2023-05-22T10:12:34.193Z,92571.00
2023-05-22T10:15:02.672Z,92575.16
2023-05-22T10:17:29.749Z,92572.03
2023-05-22T10:19:57.552Z,92578.03
2023-05-22T10:22:26.496Z,92576.56
2023-05-22T10:24:54.272Z,92575.63
2023-05-22T10:27:20.720Z,92578.59
2023-05-22T10:30:13.911Z,92583.78
2023-05-22T10:33:18.048Z,92577.03
2023-05-22T10:35:48.817Z,92596.31
2023-05-22T10:38:31.619Z,92595.91
2023-05-22T10:40:59.145Z,92602.94
2023-05-22T10:43:31.765Z,92598.78
2023-05-22T10:46:03.211Z,92609.63
2023-05-22T10:48:36.975Z,92621.28
2023-05-22T10:51:04.476Z,92609.09
2023-05-22T10:53:32.855Z,92598.00
2023-05-22T10:56:08.678Z,92588.16
2023-05-22T10:58:37.338Z,92580.19
2023-05-22T11:01:21.154Z,92577.34
2023-05-22T11:04:00.869Z,92565.78
2023-05-22T11:07:02.164Z,92553.00
2023-05-22T11:09:45.916Z,92556.69
2023-05-22T11:12:16.991Z,92556.19
2023-05-22T11:14:51.812Z,92556.25
2023-05-22T11:17:22.974Z,92552.19
2023-05-22T11:20:08.156Z,92549.72
2023-05-22T11:22:36.957Z,92554.13
2023-05-22T11:25:08.148Z,92561.03
2023-05-22T11:27:35.462Z,92573.75
2023-05-22T11:30:02.285Z,92576.72
2023-05-22T11:32:29.194Z,92579.22
2023-05-22T11:34:57.181Z,92579.22
2023-05-22T11:37:24.127Z,92574.81
2023-05-22T11:39:58.101Z,92573.81
2023-05-22T11:42:25.061Z,92579.41
2023-05-22T11:44:51.974Z,92577.25
2023-05-22T11:47:18.446Z,92574.31
2023-05-22T11:49:45.060Z,92575.22
2023-05-22T11:52:11.798Z,92575.41
2023-05-22T11:54:39.082Z,92574.16
2023-05-22T11:57:09.174Z,92575.91
2023-05-22T11:59:36.123Z,92565.25
2023-05-22T12:02:02.672Z,92561.81
2023-05-22T12:04:29.119Z,92558.53
2023-05-22T12:06:56.087Z,92561.53
2023-05-22T12:09:23.266Z,92555.50
2023-05-22T12:11:50.426Z,92554.47
2023-05-22T12:14:16.986Z,92550.53
2023-05-22T12:16:44.622Z,92552.94
2023-05-22T12:19:12.532Z,92558.97
2023-05-22T12:21:40.891Z,92559.63
2023-05-22T12:24:08.333Z,92557.22
2023-05-22T12:26:35.158Z,92558.13
2023-05-22T12:29:02.726Z,92564.09
2023-05-22T12:31:35.778Z,92578.44
2023-05-22T12:34:06.791Z,92569.97
2023-05-22T12:36:34.818Z,92568.38
2023-05-22T12:39:01.319Z,92564.06
2023-05-22T12:41:27.789Z,92563.38
2023-05-22T12:43:54.375Z,92577.41
2023-05-22T12:46:21.015Z,92577.59
2023-05-22T12:48:47.549Z,92567.38
2023-05-22T12:51:14.233Z,92559.47
2023-05-22T12:53:40.846Z,92568.09
2023-05-22T12:56:07.305Z,92562.22
2023-05-22T12:58:33.995Z,92562.78
2023-05-22T13:01:00.476Z,92567.03
2023-05-22T13:03:26.967Z,92574.16
2023-05-22T13:05:53.455Z,92571.47
2023-05-22T13:08:24.402Z,92567.44
2023-05-22T13:10:53.359Z,92568.16
2023-05-22T13:13:19.809Z,92564.78
2023-05-22T13:15:46.388Z,92559.31
2023-05-22T13:18:12.933Z,92559.38
2023-05-22T13:20:39.454Z,92558.94
2023-05-22T13:23:07.839Z,92558.94
2023-05-22T13:25:34.614Z,92553.84
2023-05-22T13:28:01.952Z,92558.56
2023-05-22T13:30:28.650Z,92551.16
2023-05-22T13:32:55.468Z,92553.75
2023-05-22T13:35:22.063Z,92550.22
2023-05-22T13:37:48.582Z,92555.78
2023-05-22T13:40:15.979Z,92550.81
2023-05-22T13:42:42.844Z,92559.38
2023-05-22T13:45:10.486Z,92548.53
2023-05-22T13:47:37.176Z,92552.28
2023-05-22T13:50:05.440Z,92539.50
2023-05-22T13:52:31.981Z,92545.47
2023-05-22T13:54:58.445Z,92533.09
2023-05-22T13:57:24.933Z,92532.28
2023-05-22T13:59:52.134Z,92524.56
2023-05-22T14:02:20.674Z,92523.25
2023-05-22T14:04:48.628Z,92523.53
2023-05-22T14:07:15.899Z,92524.25
2023-05-22T14:09:42.369Z,92539.97
2023-05-22T14:12:08.949Z,92533.28
2023-05-22T14:14:35.474Z,92542.44
2023-05-22T14:17:02.112Z,92535.00
2023-05-22T14:19:28.778Z,92538.03
2023-05-22T14:21:55.281Z,92536.06
2023-05-22T14:24:21.804Z,92543.78
2023-05-22T14:26:48.299Z,92544.56
2023-05-22T14:29:15.041Z,92548.19
2023-05-22T14:31:48.429Z,92562.25
2023-05-22T14:34:17.492Z,92567.97
2023-05-22T14:36:44.496Z,92566.09
2023-05-22T14:39:11.138Z,92563.31
2023-05-22T14:41:37.632Z,92571.31
2023-05-22T14:44:04.218Z,92564.16
2023-05-22T14:46:31.506Z,92558.94
2023-05-22T14:48:58.055Z,92560.31
2023-05-22T14:51:24.508Z,92549.56
2023-05-22T14:53:51.045Z,92545.78
2023-05-22T14:56:17.555Z,92545.84
2023-05-22T14:58:44.062Z,92548.03
2023-05-22T15:01:10.537Z,92542.06
2023-05-22T15:03:37.032Z,92534.38
2023-05-22T15:06:03.689Z,92539.53
2023-05-22T15:08:30.155Z,92533.22
2023-05-22T15:10:56.721Z,92538.34
2023-05-22T15:13:23.218Z,92543.59
2023-05-22T15:15:49.673Z,92541.25
2023-05-22T15:18:16.413Z,92537.47
2023-05-22T15:20:42.907Z,92538.94
2023-05-22T15:23:09.364Z,92536.22
2023-05-22T15:25:36.626Z,92529.13
2023-05-22T15:28:06.326Z,92524.44
2023-05-22T15:30:36.391Z,92522.50
2023-05-22T15:33:03.634Z,92523.19
2023-05-22T15:35:30.995Z,92523.38
2023-05-22T15:38:00.598Z,92524.06
2023-05-22T15:40:27.140Z,92518.72
2023-05-22T15:42:54.105Z,92513.31
2023-05-22T15:45:21.274Z,92520.00
2023-05-22T15:47:47.922Z,92521.19
2023-05-22T15:50:14.520Z,92519.69
2023-05-22T15:52:41.107Z,92522.88
2023-05-22T15:55:07.955Z,92526.66
2023-05-22T15:57:34.581Z,92532.66
2023-05-22T16:00:01.050Z,92534.22
2023-05-22T16:02:27.599Z,92530.69
2023-05-22T16:04:54.178Z,92528.69
2023-05-22T16:07:20.730Z,92532.94
2023-05-22T16:09:47.173Z,92531.63
2023-05-22T16:12:13.708Z,92529.91
2023-05-22T16:14:40.507Z,92529.66
2023-05-22T16:17:07.084Z,92531.03
2023-05-22T16:19:33.775Z,92526.97
2023-05-22T16:22:00.343Z,92534.63
2023-05-22T16:24:26.894Z,92530.88
2023-05-22T16:26:53.416Z,92535.53
2023-05-22T16:29:23.113Z,92535.00
2023-05-22T16:31:49.786Z,92534.38
2023-05-22T16:34:16.623Z,92531.47
2023-05-22T16:36:43.185Z,92527.47
2023-05-22T16:39:10.002Z,92526.09
2023-05-22T16:41:39.627Z,92526.91
2023-05-22T16:44:06.134Z,92526.97
2023-05-22T16:46:33.057Z,92530.13
2023-05-22T16:48:59.579Z,92527.19
2023-05-22T16:51:26.043Z,92522.44
2023-05-22T16:53:52.549Z,92521.88
2023-05-22T16:56:20.708Z,92515.50
2023-05-22T16:58:47.610Z,92515.03
2023-05-22T17:01:14.287Z,92517.44
2023-05-22T17:03:40.891Z,92520.66
2023-05-22T17:06:08.833Z,92521.72
2023-05-22T17:08:35.319Z,92517.41
2023-05-22T17:11:01.790Z,92530.16
2023-05-22T17:13:28.285Z,92534.31
2023-05-22T17:15:54.856Z,92530.25
2023-05-22T17:18:21.384Z,92537.00
2023-05-22T17:20:53.918Z,92538.56
2023-05-22T17:23:20.457Z,92528.09
2023-05-22T17:25:47.043Z,92535.38
2023-05-22T17:28:14.836Z,92537.28
2023-05-22T17:30:42.649Z,92537.97
2023-05-22T17:33:09.644Z,92538.47
2023-05-22T17:35:36.138Z,92544.00
2023-05-22T17:38:02.690Z,92540.53
2023-05-22T17:40:40.485Z,92545.72
2023-05-22T17:43:10.085Z,92544.78
2023-05-22T17:45:36.542Z,92535.34
2023-05-22T17:48:03.531Z,92547.78
2023-05-22T17:50:30.051Z,92553.47
2023-05-22T17:52:56.505Z,92556.94
2023-05-22T17:55:23.104Z,92566.66
2023-05-22T17:57:49.782Z,92563.53
2023-05-22T18:00:16.861Z,92574.00
2023-05-22T18:02:44.244Z,92568.88
2023-05-22T18:05:10.831Z,92568.88
2023-05-22T18:07:37.436Z,92568.19
2023-05-22T18:10:05.167Z,92571.56
2023-05-22T18:12:32.415Z,92571.25
2023-05-22T18:14:59.294Z,92571.38
2023-05-22T18:17:26.423Z,92572.53
2023-05-22T18:19:52.953Z,92565.19
2023-05-22T18:22:19.469Z,92570.56
2023-05-22T18:24:45.938Z,92564.34
2023-05-22T18:27:12.400Z,92575.56
2023-05-22T18:29:40.040Z,92579.34
2023-05-22T18:32:09.329Z,92578.97
2023-05-22T18:34:37.606Z,92586.91
2023-05-22T18:37:04.449Z,92582.97
2023-05-22T18:39:31.052Z,92585.06
2023-05-22T18:41:58.458Z,92580.69
2023-05-22T18:44:25.008Z,92588.97
2023-05-22T18:46:51.499Z,92582.28
2023-05-22T18:49:17.985Z,92589.16
2023-05-22T18:51:44.469Z,92590.44
2023-05-22T18:54:10.989Z,92597.09
2023-05-22T18:56:38.637Z,92592.78
2023-05-22T18:59:05.211Z,92587.38
2023-05-22T19:01:31.731Z,92587.41
2023-05-22T19:03:58.506Z,92587.78
2023-05-22T19:06:26.120Z,92594.91
2023-05-22T19:08:52.881Z,92591.97
2023-05-22T19:11:19.420Z,92585.31
2023-05-22T19:13:46.077Z,92585.97
2023-05-22T19:16:13.738Z,92586.59
2023-05-22T19:18:40.304Z,92597.13
2023-05-22T19:21:06.767Z,92600.88
2023-05-22T19:23:33.369Z,92600.75
2023-05-22T19:26:00.582Z,92593.56
2023-05-22T19:28:27.301Z,92600.78
2023-05-22T19:30:57.320Z,92605.16
2023-05-22T19:33:26.052Z,92607.84
2023-05-22T19:35:53.070Z,92615.34
2023-05-22T19:38:19.743Z,92612.84
2023-05-22T19:40:46.403Z,92611.75
2023-05-22T19:43:13.012Z,92622.72
2023-05-22T19:45:39.570Z,92626.56
2023-05-22T19:48:06.148Z,92624.84
2023-05-22T19:50:33.283Z,92632.19
2023-05-22T19:52:59.749Z,92634.03
2023-05-22T19:55:26.400Z,92636.38
2023-05-22T19:57:53.177Z,92638.19
2023-05-22T20:00:20.931Z,92644.72
2023-05-22T20:02:47.464Z,92647.06
2023-05-22T20:05:14.302Z,92664.53
2023-05-22T20:07:42.408Z,92661.50
2023-05-22T20:10:10.137Z,92669.94
2023-05-22T20:12:37.168Z,92668.78
2023-05-22T20:15:04.008Z,92662.38
2023-05-22T20:17:30.485Z,92671.59
2023-05-22T20:20:00.423Z,92668.94
2023-05-22T20:22:27.660Z,92662.06
2023-05-22T20:24:54.297Z,92655.19
2023-05-22T20:27:21.019Z,92663.16
2023-05-22T20:29:49.872Z,92661.91
2023-05-22T20:32:16.919Z,92659.97
2023-05-22T20:34:45.121Z,92662.94
2023-05-22T20:37:13.474Z,92662.41
2023-05-22T20:39:41.746Z,92663.16
2023-05-22T20:42:09.279Z,92670.59
2023-05-22T20:44:35.762Z,92668.34
2023-05-22T20:47:03.186Z,92669.09
2023-05-22T20:49:29.895Z,92663.47
2023-05-22T20:51:59.829Z,92655.63
2023-05-22T20:54:26.336Z,92664.75
2023-05-22T20:56:54.650Z,92666.72
2023-05-22T20:59:22.022Z,92662.50
2023-05-22T21:01:48.482Z,92672.31
2023-05-22T21:04:14.998Z,92669.59
2023-05-22T21:06:41.517Z,92670.50
2023-05-22T21:09:07.977Z,92672.66
2023-05-22T21:11:34.468Z,92677.56
2023-05-22T21:14:00.966Z,92659.53
2023-05-22T21:16:27.469Z,92674.00
2023-05-22T21:18:54.042Z,92676.81
2023-05-22T21:21:20.532Z,92674.47
2023-05-22T21:23:48.018Z,92676.22
2023-05-22T21:26:14.820Z,92679.38
2023-05-22T21:28:42.918Z,92683.69
2023-05-22T21:31:09.503Z,92687.53
2023-05-22T21:33:36.258Z,92685.75
2023-05-22T21:36:02.901Z,92691.31
2023-05-22T21:38:29.409Z,92698.41
2023-05-22T21:40:55.961Z,92691.34
2023-05-22T21:43:22.493Z,92697.31
2023-05-22T21:45:49.087Z,92689.28
2023-05-22T21:48:15.976Z,92696.25
2023-05-22T21:50:42.445Z,92690.34
2023-05-22T21:53:08.924Z,92697.50
2023-05-22T21:55:36.034Z,92701.31
2023-05-22T21:58:02.532Z,92694.56
2023-05-22T22:00:29.535Z,92700.34
2023-05-22T22:02:57.363Z,92697.38
2023-05-22T22:05:25.933Z,92706.22
2023-05-22T22:07:52.449Z,92702.88
2023-05-22T22:10:19.107Z,92706.28
2023-05-22T22:12:45.604Z,92708.16
2023-05-22T22:15:12.235Z,92706.00
2023-05-22T22:17:40.645Z,92713.94
2023-05-22T22:20:08.637Z,92716.00
2023-05-22T22:22:35.264Z,92719.78
2023-05-22T22:25:01.741Z,92717.66
2023-05-22T22:27:28.192Z,92719.91
2023-05-22T22:29:54.731Z,92719.91
2023-05-22T22:32:21.311Z,92721.28
2023-05-22T22:34:49.942Z,92717.56
2023-05-22T22:37:17.502Z,92716.56
2023-05-22T22:39:43.977Z,92717.22
2023-05-22T22:42:10.449Z,92720.25
2023-05-22T22:44:36.918Z,92721.19
2023-05-22T22:47:04.573Z,92721.19
2023-05-22T22:49:31.990Z,92726.28
2023-05-22T22:51:59.230Z,92719.72
2023-05-22T22:54:25.737Z,92727.84
2023-05-22T22:56:52.290Z,92728.13
2023-05-22T22:59:18.758Z,92719.44
2023-05-22T23:01:45.406Z,92726.56
2023-05-22T23:04:12.929Z,92725.50
2023-05-22T23:06:42.603Z,92725.28
2023-05-22T23:09:10.905Z,92726.28
2023-05-22T23:11:38.333Z,92722.56
2023-05-22T23:14:07.551Z,92719.63
2023-05-22T23:16:38.349Z,92723.34
2023-05-22T23:19:05.639Z,92724.91
2023-05-22T23:21:33.156Z,92725.00
2023-05-22T23:24:00.720Z,92724.00
2023-05-22T23:26:31.329Z,92720.19
2023-05-22T23:29:01.087Z,92718.25
2023-05-22T23:31:30.281Z,92716.91
2023-05-22T23:33:57.498Z,92709.03
2023-05-22T23:36:24.586Z,92718.00
2023-05-22T23:38:51.024Z,92719.03
2023-05-22T23:41:18.545Z,92716.91
2023-05-22T23:43:45.785Z,92712.69
2023-05-22T23:46:15.722Z,92716.69
2023-05-22T23:48:42.595Z,92717.06
2023-05-22T23:51:09.888Z,92710.84
2023-05-22T23:53:36.575Z,92708.84
2023-05-22T23:56:04.249Z,92708.63
2023-05-22T23:58:31.938Z,92706.34
